Dades meteomassalio
Diari Summary for Gener 12, 2018 Units:  English    Metric   Both
« Previous Day
Next Day »
Diari Semanal Mensual Anual Personalitzat
  Maxima: Minima: Mijana:
Temperatura: TemperatureC °F 1.7 °F 7 °F
Rosada: DewpointC °F -0.4 °F 3 °F
Humitat: Humidity % 66 % 75 %
Velocitat del vent: WindSpeedKMH mph 0.0 mph 17.2 mph
Racha vent: WindSpeedGustKMH mph - -
Vent:- - NW
Pressio: PressurehPa in 1024.9 in -
Pluja: 0.0 in    
Historical Graphs
 
 
Tabular Data for Gener 12, 2018
Time Temperature Dew Point Pressure Wind Wind Speed Wind Gust Humidity Rainfall Rate (Hourly) solar Conditions
TemperatureC °F DewpointC °F PressurehPa in Calm     Humidity % HourlyPrecipMM in SolarRadiationWatts/m^2 W/m2 Conditions
00:00 6.1 °F 2.2 °F 1024.9 in NW 24.1 mph 24.1 mph 76 % 0.0 in 0.0 W/m2 CLR
00:01 6.1 °F 2.2 °F 1025.3 in North 13.0 mph 13.0 mph 76 % 0.0 in 0.0 W/m2 CLR
00:09 6.1 °F 2.2 °F 1024.9 in NW 18.5 mph 18.5 mph 76 % 0.0 in 0.0 W/m2 CLR
00:22 6.1 °F 2.2 °F 1025.3 in NNW 22.2 mph 22.2 mph 76 % 0.0 in 0.0 W/m2 CLR
00:39 6.1 °F 2.2 °F 1025.3 in NW 9.7 mph 9.7 mph 76 % 0.0 in 0.0 W/m2 CLR
00:41 6.1 °F 2.4 °F 1025.3 in NW 18.5 mph 18.5 mph 77 % 0.0 in 0.0 W/m2 CLR
00:44 6.1 °F 2.4 °F 1025.3 in NNW 18.5 mph 18.5 mph 77 % 0.0 in 0.0 W/m2 CLR
00:49 6.1 °F 2.4 °F 1025.3 in NNW 18.5 mph 18.5 mph 77 % 0.0 in 0.0 W/m2 CLR
00:54 6.1 °F 2.4 °F 1025.6 in NNW 18.5 mph 18.5 mph 77 % 0.0 in 0.0 W/m2 CLR
01:00 6.1 °F 2.4 °F 1025.3 in NNW 20.4 mph 20.4 mph 77 % 0.0 in 0.0 W/m2 CLR
01:12 6.1 °F 2.6 °F 1025.3 in NW 14.8 mph 14.8 mph 78 % 0.0 in 0.0 W/m2 CLR
01:24 6.1 °F 2.7 °F 1025.3 in WNW 18.5 mph 18.5 mph 79 % 0.0 in 0.0 W/m2 CLR
01:32 6.1 °F 2.7 °F 1025.3 in NW 24.1 mph 24.1 mph 79 % 0.0 in 0.0 W/m2 CLR
01:41 5.6 °F 2.2 °F 1025.3 in NNW 20.4 mph 20.4 mph 79 % 0.0 in 0.0 W/m2 CLR
01:47 5.6 °F 2.4 °F 1025.3 in NNW 16.7 mph 16.7 mph 80 % 0.0 in 0.0 W/m2 CLR
01:58 5.0 °F 2.0 °F 1025.6 in NNW 16.7 mph 16.7 mph 81 % 0.0 in 0.0 W/m2 CLR
02:04 5.0 °F 2.0 °F 1025.6 in NW 18.5 mph 18.5 mph 81 % 0.0 in 0.0 W/m2 CLR
02:20 5.0 °F 2.2 °F 1025.3 in WNW 11.1 mph 11.1 mph 82 % 0.0 in 0.0 W/m2 CLR
02:38 5.0 °F 2.2 °F 1025.6 in WNW 18.5 mph 18.5 mph 82 % 0.0 in 0.0 W/m2 CLR
02:50 5.0 °F 2.0 °F 1025.6 in WNW 18.5 mph 18.5 mph 81 % 0.0 in 0.0 W/m2 CLR
02:55 5.0 °F 2.0 °F 1025.6 in NNW 20.4 mph 20.4 mph 81 % 0.0 in 0.0 W/m2 CLR
03:05 5.6 °F 2.6 °F 1025.6 in WNW 24.1 mph 24.1 mph 81 % 0.0 in 0.0 W/m2 CLR
03:18 5.0 °F 2.0 °F 1026.0 in NNW 22.2 mph 22.2 mph 81 % 0.0 in 0.0 W/m2 CLR
03:28 5.0 °F 2.2 °F 1026.0 in NW 22.2 mph 22.2 mph 82 % 0.0 in 0.0 W/m2 CLR
03:42 5.6 °F 2.6 °F 1026.0 in WNW 19.3 mph 19.3 mph 81 % 0.0 in 0.0 W/m2 CLR
03:48 5.6 °F 2.6 °F 1025.6 in WNW 18.5 mph 18.7 mph 81 % 0.0 in 0.0 W/m2 CLR
03:56 5.6 °F 2.6 °F 1025.6 in NW 20.4 mph 20.4 mph 81 % 0.0 in 0.0 W/m2 CLR
04:01 5.6 °F 2.6 °F 1025.6 in WNW 20.4 mph 20.4 mph 81 % 0.0 in 0.0 W/m2 CLR
04:11 5.6 °F 2.4 °F 1025.6 in NW 20.4 mph 20.4 mph 80 % 0.0 in 0.0 W/m2 CLR
04:18 6.1 °F 2.9 °F 1025.6 in NW 27.8 mph 27.8 mph 80 % 0.0 in 0.0 W/m2 CLR
04:49 6.7 °F 3.1 °F 1025.6 in NW 29.6 mph 29.6 mph 78 % 0.0 in 0.0 W/m2 CLR
05:06 6.7 °F 3.3 °F 1025.6 in NW 22.2 mph 22.2 mph 79 % 0.0 in 0.0 W/m2 CLR
05:15 6.7 °F 3.3 °F 1025.6 in NW 24.1 mph 24.1 mph 79 % 0.0 in 0.0 W/m2 CLR
05:45 6.7 °F 3.3 °F 1026.0 in NW 20.4 mph 20.4 mph 79 % 0.0 in 0.0 W/m2 CLR
05:52 6.7 °F 3.3 °F 1025.6 in NW 22.2 mph 22.2 mph 79 % 0.0 in 0.0 W/m2 CLR
06:05 6.7 °F 3.3 °F 1026.0 in WNW 24.1 mph 24.1 mph 79 % 0.0 in 0.0 W/m2 CLR
06:17 6.1 °F 2.7 °F 1026.0 in NW 22.2 mph 22.2 mph 79 % 0.0 in 0.0 W/m2 CLR
06:24 6.1 °F 2.7 °F 1026.0 in WNW 20.4 mph 20.4 mph 79 % 0.0 in 0.0 W/m2 CLR
06:31 6.1 °F 2.9 °F 1026.0 in WNW 25.9 mph 25.9 mph 80 % 0.0 in 0.0 W/m2 CLR
06:56 7.2 °F 3.7 °F 1026.0 in WNW 24.1 mph 24.1 mph 78 % 0.0 in 0.0 W/m2 CLR
07:04 6.7 °F 3.1 °F 1026.0 in NW 24.1 mph 24.1 mph 78 % 0.0 in 0.0 W/m2 CLR
07:27 7.2 °F 3.4 °F 1026.0 in NW 20.4 mph 20.4 mph 77 % 0.0 in 0.0 W/m2 CLR
07:45 6.7 °F 2.9 °F 1026.0 in NW 18.5 mph 18.5 mph 77 % 0.0 in 0.0 W/m2 CLR
07:51 6.7 °F 3.1 °F 1026.3 in WNW 24.1 mph 24.1 mph 78 % 0.0 in 0.0 W/m2 CLR
08:08 6.7 °F 2.9 °F 1026.3 in NW 19.3 mph 22.5 mph 77 % 0.0 in 0.0 W/m2 CLR
08:28 6.7 °F 3.1 °F 1026.3 in NW 18.5 mph 18.5 mph 78 % 0.0 in 5.0 W/m2 OVC
08:44 6.7 °F 3.1 °F 1026.3 in NW 20.4 mph 20.4 mph 78 % 0.0 in 11.0 W/m2 BKN
09:01 6.7 °F 2.9 °F 1026.3 in NW 20.4 mph 20.4 mph 77 % 0.0 in 25.0 W/m2 BKN
09:23 7.2 °F 3.4 °F 1026.6 in NW 24.1 mph 24.1 mph 77 % 0.0 in 47.0 W/m2 SCT
09:37 7.2 °F 3.3 °F 1026.6 in NW 35.2 mph 35.2 mph 76 % 0.0 in 47.0 W/m2 SCT
09:49 7.8 °F 3.8 °F 1026.6 in North 25.9 mph 25.9 mph 76 % 0.0 in 51.0 W/m2 SCT
09:56 7.8 °F 3.8 °F 1026.6 in NW 40.7 mph 40.7 mph 76 % 0.0 in 183.0 W/m2 FEW
10:01 7.8 °F 3.8 °F 1026.6 in NW 33.3 mph 33.3 mph 76 % 0.0 in 195.0 W/m2 CLR
10:13 8.3 °F 4.2 °F 1027.0 in NW 29.6 mph 29.6 mph 75 % 0.0 in 123.0 W/m2 CLR
10:19 8.3 °F 3.9 °F 1027.0 in NW 29.0 mph 29.0 mph 74 % 0.0 in 70.0 W/m2 CLR
10:35 8.9 °F 4.3 °F 1027.0 in NNW 38.9 mph 38.9 mph 73 % 0.0 in 70.0 W/m2 CLR
10:55 8.9 °F 4.3 °F 1027.0 in NW 31.5 mph 31.5 mph 73 % 0.0 in 139.0 W/m2 CLR
11:02 9.4 °F 4.7 °F 1027.0 in NNW 33.3 mph 33.3 mph 72 % 0.0 in 137.0 W/m2 CLR
11:08 9.4 °F 4.7 °F 1027.3 in North 31.5 mph 31.5 mph 72 % 0.0 in 141.0 W/m2 CLR
11:15 9.4 °F 4.4 °F 1027.0 in North 33.8 mph 33.8 mph 71 % 0.0 in 146.0 W/m2 CLR
11:43 10.0 °F 4.8 °F 1027.0 in NW 20.4 mph 20.4 mph 70 % 0.0 in 139.0 W/m2 CLR
12:14 9.4 °F 4.2 °F 1027.0 in NW 27.8 mph 27.8 mph 70 % 0.0 in 116.0 W/m2 CLR
12:27 10.0 °F 4.8 °F 1027.0 in NNW 24.1 mph 24.1 mph 70 % 0.0 in 158.0 W/m2 CLR
12:44 11.1 °F 5.2 °F 1026.6 in NW 24.1 mph 24.1 mph 67 % 0.0 in 274.0 W/m2 CLR
12:54 10.6 °F 4.9 °F 1026.3 in NW 29.6 mph 29.6 mph 68 % 0.0 in 197.0 W/m2 CLR
13:10 11.1 °F 5.4 °F 1026.3 in NNW 27.4 mph 27.4 mph 68 % 0.0 in 306.0 W/m2 CLR
13:23 11.1 °F 5.2 °F 1026.0 in NW 27.8 mph 27.8 mph 67 % 0.0 in 156.0 W/m2 CLR
13:42 10.6 °F 4.7 °F 1026.0 in North 33.3 mph 33.3 mph 67 % 0.0 in 146.0 W/m2 CLR
13:48 10.6 °F 4.9 °F 1026.0 in North 31.5 mph 31.5 mph 68 % 0.0 in 127.0 W/m2 CLR
14:02 10.6 °F 5.1 °F 1026.0 in NNW 18.5 mph 18.5 mph 69 % 0.0 in 179.0 W/m2 CLR
14:09 10.6 °F 5.1 °F 1026.0 in North 31.5 mph 31.5 mph 69 % 0.0 in 151.0 W/m2 CLR
14:14 10.6 °F 5.1 °F 1025.6 in North 27.8 mph 27.8 mph 69 % 0.0 in 174.0 W/m2 CLR
14:39 10.6 °F 5.3 °F 1025.6 in NW 9.7 mph 9.7 mph 70 % 0.0 in 83.0 W/m2 CLR
14:56 10.6 °F 5.1 °F 1025.3 in North 27.8 mph 27.8 mph 69 % 0.0 in 47.0 W/m2 FEW
15:02 10.0 °F 4.8 °F 1025.6 in North 27.8 mph 27.8 mph 70 % 0.0 in 49.0 W/m2 SCT
15:16 10.6 °F 5.5 °F 1025.6 in NE 16.7 mph 16.7 mph 71 % 0.0 in 109.0 W/m2 CLR
15:34 10.0 °F 4.6 °F 1025.3 in NNW 20.4 mph 20.4 mph 69 % 0.0 in 56.0 W/m2 SCT
16:03 10.6 °F 4.7 °F 1025.3 in NW 29.6 mph 29.6 mph 67 % 0.0 in 114.0 W/m2 CLR
16:12 10.6 °F 4.4 °F 1025.3 in NNW 20.4 mph 20.4 mph 66 % 0.0 in 86.0 W/m2 CLR
16:18 10.6 °F 4.7 °F 1025.3 in NW 25.9 mph 25.9 mph 67 % 0.0 in 47.0 W/m2 FEW
16:28 10.0 °F 4.2 °F 1025.3 in NNW 18.5 mph 18.5 mph 67 % 0.0 in 53.0 W/m2 FEW
16:41 10.0 °F 4.2 °F 1025.3 in North 18.5 mph 18.5 mph 67 % 0.0 in 39.0 W/m2 BKN
16:57 10.0 °F 4.2 °F 1025.3 in North 18.5 mph 18.5 mph 67 % 0.0 in 21.0 W/m2 BKN
17:09 10.0 °F 4.3 °F 1025.6 in NNW 18.5 mph 18.5 mph 68 % 0.0 in 26.0 W/m2 BKN
17:15 10.0 °F 4.3 °F 1025.6 in NNW 5.6 mph   68 % 0.0 in 21.0 W/m2 BKN
17:28 10.0 °F 4.6 °F 1025.6 in Calm     69 % 0.0 in 12.0 W/m2 BKN
17:35 9.4 °F 4.2 °F 1025.6 in Calm     70 % 0.0 in 0.0 W/m2 OVC
18:00 8.9 °F 3.7 °F 1025.6 in Calm     70 % 0.0 in 0.0 W/m2 OVC
18:12 8.9 °F 3.7 °F 1025.6 in NNW 14.8 mph 14.8 mph 70 % 0.0 in 0.0 W/m2 CLR
18:45 8.9 °F 3.7 °F 1026.0 in Calm     70 % 0.0 in 0.0 W/m2 CLR
18:51 8.9 °F 3.7 °F 1026.0 in Calm     70 % 0.0 in 0.0 W/m2 CLR
18:56 8.9 °F 3.7 °F 1026.0 in Calm     70 % 0.0 in 0.0 W/m2 CLR
19:20 7.8 °F 2.7 °F 1026.3 in Calm     70 % 0.0 in 0.0 W/m2 CLR
19:28 7.2 °F 2.3 °F 1026.0 in Calm     71 % 0.0 in 0.0 W/m2 CLR
19:43 6.7 °F 2.0 °F 1026.3 in Calm     72 % 0.0 in 0.0 W/m2 CLR
19:48 6.7 °F 2.0 °F 1026.3 in Calm     72 % 0.0 in 0.0 W/m2 CLR
20:17 5.6 °F 1.1 °F 1026.3 in Calm     73 % 0.0 in 0.0 W/m2 CLR
20:29 5.0 °F 0.9 °F 1026.6 in Calm     75 % 0.0 in 0.0 W/m2 CLR
20:42 5.0 °F 1.3 °F 1026.6 in Calm     77 % 0.0 in 0.0 W/m2 CLR
20:52 4.4 °F 0.9 °F 1026.6 in Calm     78 % 0.0 in 0.0 W/m2 CLR
21:00 4.4 °F 1.1 °F 1026.6 in Calm     79 % 0.0 in 0.0 W/m2 CLR
21:06 4.4 °F 1.1 °F 1026.6 in Calm     79 % 0.0 in 0.0 W/m2 CLR
21:12 3.9 °F 0.6 °F 1026.6 in Calm     79 % 0.0 in 0.0 W/m2 CLR
21:31 4.4 °F 1.6 °F 1026.6 in Calm     82 % 0.0 in 0.0 W/m2 CLR
21:39 4.4 °F 1.4 °F 1026.6 in Calm     81 % 0.0 in 0.0 W/m2 CLR
21:44 4.4 °F 1.4 °F 1026.6 in Calm     81 % 0.0 in 0.0 W/m2 CLR
21:53 3.9 °F 1.4 °F 1026.6 in Calm     84 % 0.0 in 0.0 W/m2 CLR
21:59 3.9 °F 1.3 °F 1026.6 in Calm     83 % 0.0 in 0.0 W/m2 CLR
22:21 3.3 °F 1.1 °F 1026.3 in WNW 9.7 mph 9.7 mph 85 % 0.0 in 0.0 W/m2 CLR
22:29 2.8 °F -0.3 °F 1026.3 in WNW 11.1 mph   80 % 0.0 in 0.0 W/m2 CLR
22:38 2.8 °F -0.3 °F 1026.3 in WNW 11.1 mph   80 % 0.0 in 0.0 W/m2 CLR
22:51 2.8 °F 0.2 °F 1026.3 in Calm     83 % 0.0 in 0.0 W/m2 CLR
23:07 2.8 °F 0.5 °F 1026.6 in Calm     85 % 0.0 in 0.0 W/m2 CLR
23:26 2.2 °F 0.1 °F 1026.6 in Calm     86 % 0.0 in 0.0 W/m2 CLR
23:44 1.7 °F -0.4 °F 1026.3 in Calm     86 % 0.0 in 0.0 W/m2 CLR
Lo Temps de Massalio
Compliments of Weather Underground - 768 kb